sensor_id;sensor_type;location;lat;lon;timestamp;P1;durP1;ratioP1;P2;durP2;ratioP2
26953;SDS011;14508;50.924;11.600;2023-06-14T00:01:00;14.35;;;5.03;;
26953;SDS011;14508;50.924;11.600;2023-06-14T00:03:29;8.57;;;4.38;;
26953;SDS011;14508;50.924;11.600;2023-06-14T00:05:58;7.80;;;4.28;;
26953;SDS011;14508;50.924;11.600;2023-06-14T00:08:26;8.98;;;4.00;;
26953;SDS011;14508;50.924;11.600;2023-06-14T00:10:54;9.65;;;4.40;;
26953;SDS011;14508;50.924;11.600;2023-06-14T00:13:22;9.90;;;4.20;;
26953;SDS011;14508;50.924;11.600;2023-06-14T00:15:51;8.90;;;4.10;;
26953;SDS011;14508;50.924;11.600;2023-06-14T00:18:21;10.15;;;4.72;;
26953;SDS011;14508;50.924;11.600;2023-06-14T00:20:51;7.65;;;3.97;;
26953;SDS011;14508;50.924;11.600;2023-06-14T00:23:19;14.18;;;4.50;;
26953;SDS011;14508;50.924;11.600;2023-06-14T00:25:47;9.55;;;4.20;;
26953;SDS011;14508;50.924;11.600;2023-06-14T00:28:15;6.95;;;5.13;;
26953;SDS011;14508;50.924;11.600;2023-06-14T00:30:43;8.40;;;4.30;;
26953;SDS011;14508;50.924;11.600;2023-06-14T00:33:14;7.53;;;4.32;;
26953;SDS011;14508;50.924;11.600;2023-06-14T00:35:42;7.53;;;3.90;;
26953;SDS011;14508;50.924;11.600;2023-06-14T00:38:10;6.85;;;4.38;;
26953;SDS011;14508;50.924;11.600;2023-06-14T00:40:39;11.90;;;4.30;;
26953;SDS011;14508;50.924;11.600;2023-06-14T00:43:07;10.77;;;4.32;;
26953;SDS011;14508;50.924;11.600;2023-06-14T00:45:35;7.60;;;4.32;;
26953;SDS011;14508;50.924;11.600;2023-06-14T00:48:03;6.68;;;3.88;;
26953;SDS011;14508;50.924;11.600;2023-06-14T00:50:34;7.95;;;3.78;;
26953;SDS011;14508;50.924;11.600;2023-06-14T00:53:04;8.30;;;4.38;;
26953;SDS011;14508;50.924;11.600;2023-06-14T00:55:33;7.50;;;4.18;;
26953;SDS011;14508;50.924;11.600;2023-06-14T00:58:01;8.80;;;4.65;;
26953;SDS011;14508;50.924;11.600;2023-06-14T01:00:29;10.80;;;4.28;;
26953;SDS011;14508;50.924;11.600;2023-06-14T01:02:57;10.60;;;4.38;;
26953;SDS011;14508;50.924;11.600;2023-06-14T01:05:25;7.03;;;3.67;;
26953;SDS011;14508;50.924;11.600;2023-06-14T01:08:14;6.95;;;3.78;;
26953;SDS011;14508;50.924;11.600;2023-06-14T01:10:52;8.18;;;4.07;;
26953;SDS011;14508;50.924;11.600;2023-06-14T01:13:23;8.55;;;4.35;;
26953;SDS011;14508;50.924;11.600;2023-06-14T01:15:58;8.75;;;4.28;;
26953;SDS011;14508;50.924;11.600;2023-06-14T01:18:29;8.70;;;4.22;;
26953;SDS011;14508;50.924;11.600;2023-06-14T01:21:00;6.75;;;4.38;;
26953;SDS011;14508;50.924;11.600;2023-06-14T01:23:35;7.97;;;4.18;;
26953;SDS011;14508;50.924;11.600;2023-06-14T01:26:09;8.52;;;4.03;;
26953;SDS011;14508;50.924;11.600;2023-06-14T01:28:38;6.10;;;3.55;;
26953;SDS011;14508;50.924;11.600;2023-06-14T01:31:09;12.65;;;4.38;;
26953;SDS011;14508;50.924;11.600;2023-06-14T01:34:32;10.77;;;3.63;;
26953;SDS011;14508;50.924;11.600;2023-06-14T01:37:03;8.52;;;4.55;;
26953;SDS011;14508;50.924;11.600;2023-06-14T01:39:33;5.82;;;4.00;;
26953;SDS011;14508;50.924;11.600;2023-06-14T01:42:02;7.07;;;4.50;;
26953;SDS011;14508;50.924;11.600;2023-06-14T01:44:33;5.28;;;3.72;;
26953;SDS011;14508;50.924;11.600;2023-06-14T01:47:01;6.95;;;3.75;;
26953;SDS011;14508;50.924;11.600;2023-06-14T01:49:29;7.25;;;4.45;;
26953;SDS011;14508;50.924;11.600;2023-06-14T01:52:01;9.52;;;4.30;;
26953;SDS011;14508;50.924;11.600;2023-06-14T01:54:34;6.20;;;4.10;;
26953;SDS011;14508;50.924;11.600;2023-06-14T01:57:09;10.65;;;4.43;;
26953;SDS011;14508;50.924;11.600;2023-06-14T01:59:41;6.43;;;3.90;;
26953;SDS011;14508;50.924;11.600;2023-06-14T02:02:24;6.43;;;3.55;;
26953;SDS011;14508;50.924;11.600;2023-06-14T02:05:10;10.90;;;4.53;;
26953;SDS011;14508;50.924;11.600;2023-06-14T02:07:57;7.10;;;3.80;;
26953;SDS011;14508;50.924;11.600;2023-06-14T02:10:41;8.68;;;3.90;;
26953;SDS011;14508;50.924;11.600;2023-06-14T02:13:10;6.53;;;4.45;;
26953;SDS011;14508;50.924;11.600;2023-06-14T02:15:42;8.40;;;3.88;;
26953;SDS011;14508;50.924;11.600;2023-06-14T02:18:13;8.10;;;3.78;;
26953;SDS011;14508;50.924;11.600;2023-06-14T02:20:42;8.65;;;4.00;;
26953;SDS011;14508;50.924;11.600;2023-06-14T02:23:10;7.18;;;3.75;;
26953;SDS011;14508;50.924;11.600;2023-06-14T02:25:39;11.80;;;3.92;;
26953;SDS011;14508;50.924;11.600;2023-06-14T02:28:08;11.40;;;4.20;;
26953;SDS011;14508;50.924;11.600;2023-06-14T02:30:40;9.55;;;3.85;;
26953;SDS011;14508;50.924;11.600;2023-06-14T02:33:08;6.50;;;3.38;;
26953;SDS011;14508;50.924;11.600;2023-06-14T02:35:39;9.13;;;3.30;;
26953;SDS011;14508;50.924;11.600;2023-06-14T02:38:21;9.57;;;4.18;;
26953;SDS011;14508;50.924;11.600;2023-06-14T02:41:22;6.25;;;3.72;;
26953;SDS011;14508;50.924;11.600;2023-06-14T02:43:59;6.53;;;3.53;;
26953;SDS011;14508;50.924;11.600;2023-06-14T02:46:35;8.05;;;3.50;;
26953;SDS011;14508;50.924;11.600;2023-06-14T02:49:14;6.50;;;3.33;;
26953;SDS011;14508;50.924;11.600;2023-06-14T02:52:03;5.93;;;3.42;;
26953;SDS011;14508;50.924;11.600;2023-06-14T02:54:48;10.30;;;3.88;;
26953;SDS011;14508;50.924;11.600;2023-06-14T02:57:36;6.22;;;4.07;;
26953;SDS011;14508;50.924;11.600;2023-06-14T03:00:31;5.25;;;3.63;;
26953;SDS011;14508;50.924;11.600;2023-06-14T03:03:22;12.73;;;3.78;;
26953;SDS011;14508;50.924;11.600;2023-06-14T03:06:19;6.88;;;3.72;;
26953;SDS011;14508;50.924;11.600;2023-06-14T03:09:00;8.40;;;3.50;;
26953;SDS011;14508;50.924;11.600;2023-06-14T03:11:41;6.47;;;3.95;;
26953;SDS011;14508;50.924;11.600;2023-06-14T03:14:28;6.28;;;3.72;;
26953;SDS011;14508;50.924;11.600;2023-06-14T03:17:04;7.40;;;3.30;;
26953;SDS011;14508;50.924;11.600;2023-06-14T03:19:46;6.10;;;3.53;;
26953;SDS011;14508;50.924;11.600;2023-06-14T03:22:22;6.07;;;3.42;;
26953;SDS011;14508;50.924;11.600;2023-06-14T03:24:52;8.98;;;3.55;;
26953;SDS011;14508;50.924;11.600;2023-06-14T03:27:21;10.68;;;3.65;;
26953;SDS011;14508;50.924;11.600;2023-06-14T03:29:49;6.60;;;3.17;;
26953;SDS011;14508;50.924;11.600;2023-06-14T03:32:26;4.60;;;3.15;;
26953;SDS011;14508;50.924;11.600;2023-06-14T03:35:01;5.55;;;3.35;;
26953;SDS011;14508;50.924;11.600;2023-06-14T03:37:33;6.32;;;3.47;;
26953;SDS011;14508;50.924;11.600;2023-06-14T03:40:01;6.35;;;3.38;;
26953;SDS011;14508;50.924;11.600;2023-06-14T03:42:39;9.15;;;3.38;;
26953;SDS011;14508;50.924;11.600;2023-06-14T03:45:07;8.40;;;4.35;;
26953;SDS011;14508;50.924;11.600;2023-06-14T03:47:40;5.78;;;3.50;;
26953;SDS011;14508;50.924;11.600;2023-06-14T03:50:46;5.50;;;3.50;;
26953;SDS011;14508;50.924;11.600;2023-06-14T03:53:48;11.25;;;3.65;;
26953;SDS011;14508;50.924;11.600;2023-06-14T03:56:37;8.27;;;3.63;;
26953;SDS011;14508;50.924;11.600;2023-06-14T03:59:10;9.85;;;3.53;;
26953;SDS011;14508;50.924;11.600;2023-06-14T04:01:40;5.32;;;3.67;;
26953;SDS011;14508;50.924;11.600;2023-06-14T04:04:27;6.03;;;3.25;;
26953;SDS011;14508;50.924;11.600;2023-06-14T04:07:23;7.32;;;3.85;;
26953;SDS011;14508;50.924;11.600;2023-06-14T04:10:15;6.05;;;3.28;;
26953;SDS011;14508;50.924;11.600;2023-06-14T04:13:26;8.90;;;3.28;;
26953;SDS011;14508;50.924;11.600;2023-06-14T04:16:11;6.45;;;3.42;;
26953;SDS011;14508;50.924;11.600;2023-06-14T04:18:47;7.57;;;3.65;;
26953;SDS011;14508;50.924;11.600;2023-06-14T04:21:32;8.02;;;3.58;;
26953;SDS011;14508;50.924;11.600;2023-06-14T04:24:16;7.00;;;3.80;;
26953;SDS011;14508;50.924;11.600;2023-06-14T04:26:49;5.50;;;3.70;;
26953;SDS011;14508;50.924;11.600;2023-06-14T04:29:20;6.97;;;3.25;;
26953;SDS011;14508;50.924;11.600;2023-06-14T04:31:56;6.22;;;3.45;;
26953;SDS011;14508;50.924;11.600;2023-06-14T04:34:27;8.82;;;3.35;;
26953;SDS011;14508;50.924;11.600;2023-06-14T04:36:57;7.00;;;3.78;;
26953;SDS011;14508;50.924;11.600;2023-06-14T04:39:34;7.22;;;3.55;;
26953;SDS011;14508;50.924;11.600;2023-06-14T04:42:03;7.80;;;3.47;;
26953;SDS011;14508;50.924;11.600;2023-06-14T04:44:34;4.55;;;2.90;;
26953;SDS011;14508;50.924;11.600;2023-06-14T04:47:04;4.88;;;3.70;;
26953;SDS011;14508;50.924;11.600;2023-06-14T04:49:33;5.28;;;3.72;;
26953;SDS011;14508;50.924;11.600;2023-06-14T04:52:02;7.70;;;3.33;;
26953;SDS011;14508;50.924;11.600;2023-06-14T04:54:37;7.43;;;3.70;;
26953;SDS011;14508;50.924;11.600;2023-06-14T04:57:09;5.22;;;3.35;;
26953;SDS011;14508;50.924;11.600;2023-06-14T04:59:41;9.90;;;4.38;;
26953;SDS011;14508;50.924;11.600;2023-06-14T05:02:10;11.13;;;3.90;;
26953;SDS011;14508;50.924;11.600;2023-06-14T05:04:38;6.70;;;3.50;;
26953;SDS011;14508;50.924;11.600;2023-06-14T05:07:08;6.70;;;3.50;;
26953;SDS011;14508;50.924;11.600;2023-06-14T05:09:38;7.10;;;3.55;;
26953;SDS011;14508;50.924;11.600;2023-06-14T05:12:06;12.95;;;3.92;;
26953;SDS011;14508;50.924;11.600;2023-06-14T05:14:36;9.07;;;3.70;;
26953;SDS011;14508;50.924;11.600;2023-06-14T05:17:05;7.68;;;4.57;;
26953;SDS011;14508;50.924;11.600;2023-06-14T05:19:34;5.35;;;2.88;;
26953;SDS011;14508;50.924;11.600;2023-06-14T05:22:02;6.25;;;3.90;;
26953;SDS011;14508;50.924;11.600;2023-06-14T05:24:31;7.80;;;3.75;;
26953;SDS011;14508;50.924;11.600;2023-06-14T05:26:59;6.45;;;3.78;;
26953;SDS011;14508;50.924;11.600;2023-06-14T05:29:30;6.03;;;3.53;;
26953;SDS011;14508;50.924;11.600;2023-06-14T05:31:59;4.18;;;3.00;;
26953;SDS011;14508;50.924;11.600;2023-06-14T05:34:27;9.35;;;4.05;;
26953;SDS011;14508;50.924;11.600;2023-06-14T05:36:56;6.30;;;3.45;;
26953;SDS011;14508;50.924;11.600;2023-06-14T05:39:23;6.60;;;3.88;;
26953;SDS011;14508;50.924;11.600;2023-06-14T05:41:53;8.60;;;3.70;;
26953;SDS011;14508;50.924;11.600;2023-06-14T05:44:21;6.82;;;4.57;;
26953;SDS011;14508;50.924;11.600;2023-06-14T05:46:49;8.23;;;3.50;;
26953;SDS011;14508;50.924;11.600;2023-06-14T05:49:17;6.25;;;3.75;;
26953;SDS011;14508;50.924;11.600;2023-06-14T05:51:45;9.90;;;4.00;;
26953;SDS011;14508;50.924;11.600;2023-06-14T05:54:14;6.53;;;3.47;;
26953;SDS011;14508;50.924;11.600;2023-06-14T05:56:42;5.95;;;4.13;;
26953;SDS011;14508;50.924;11.600;2023-06-14T05:59:11;7.60;;;3.50;;
26953;SDS011;14508;50.924;11.600;2023-06-14T06:01:39;5.47;;;3.30;;
26953;SDS011;14508;50.924;11.600;2023-06-14T06:04:07;7.80;;;3.55;;
26953;SDS011;14508;50.924;11.600;2023-06-14T06:06:35;4.03;;;3.10;;
26953;SDS011;14508;50.924;11.600;2023-06-14T06:09:03;16.33;;;4.28;;
26953;SDS011;14508;50.924;11.600;2023-06-14T06:11:31;7.57;;;3.80;;
26953;SDS011;14508;50.924;11.600;2023-06-14T06:14:15;8.45;;;3.85;;
26953;SDS011;14508;50.924;11.600;2023-06-14T06:16:43;9.30;;;3.88;;
26953;SDS011;14508;50.924;11.600;2023-06-14T06:19:11;5.88;;;3.88;;
26953;SDS011;14508;50.924;11.600;2023-06-14T06:21:40;7.18;;;3.75;;
26953;SDS011;14508;50.924;11.600;2023-06-14T06:24:08;5.53;;;3.78;;
26953;SDS011;14508;50.924;11.600;2023-06-14T06:26:35;11.70;;;4.57;;
26953;SDS011;14508;50.924;11.600;2023-06-14T06:29:04;12.00;;;3.88;;
26953;SDS011;14508;50.924;11.600;2023-06-14T06:31:33;5.55;;;3.63;;
26953;SDS011;14508;50.924;11.600;2023-06-14T06:34:01;7.68;;;3.80;;
26953;SDS011;14508;50.924;11.600;2023-06-14T06:36:29;6.68;;;4.32;;
26953;SDS011;14508;50.924;11.600;2023-06-14T06:38:58;11.63;;;4.20;;
26953;SDS011;14508;50.924;11.600;2023-06-14T06:41:26;5.95;;;3.75;;
26953;SDS011;14508;50.924;11.600;2023-06-14T06:43:54;9.75;;;4.38;;
26953;SDS011;14508;50.924;11.600;2023-06-14T06:46:27;7.95;;;4.22;;
26953;SDS011;14508;50.924;11.600;2023-06-14T06:48:57;8.25;;;4.40;;
26953;SDS011;14508;50.924;11.600;2023-06-14T06:51:25;10.85;;;4.28;;
26953;SDS011;14508;50.924;11.600;2023-06-14T06:53:53;5.47;;;3.65;;
26953;SDS011;14508;50.924;11.600;2023-06-14T06:56:21;9.85;;;4.07;;
26953;SDS011;14508;50.924;11.600;2023-06-14T06:58:50;9.13;;;4.40;;
26953;SDS011;14508;50.924;11.600;2023-06-14T07:01:18;7.03;;;4.60;;
26953;SDS011;14508;50.924;11.600;2023-06-14T07:03:47;6.70;;;4.97;;
26953;SDS011;14508;50.924;11.600;2023-06-14T07:06:16;7.95;;;4.95;;
26953;SDS011;14508;50.924;11.600;2023-06-14T07:08:45;6.10;;;4.47;;
26953;SDS011;14508;50.924;11.600;2023-06-14T07:11:14;8.75;;;4.60;;
26953;SDS011;14508;50.924;11.600;2023-06-14T07:13:42;5.78;;;4.38;;
26953;SDS011;14508;50.924;11.600;2023-06-14T07:16:11;8.40;;;4.95;;
26953;SDS011;14508;50.924;11.600;2023-06-14T07:18:39;7.80;;;4.15;;
26953;SDS011;14508;50.924;11.600;2023-06-14T07:21:07;7.35;;;4.15;;
26953;SDS011;14508;50.924;11.600;2023-06-14T07:23:37;10.18;;;5.10;;
26953;SDS011;14508;50.924;11.600;2023-06-14T07:26:05;5.32;;;4.10;;
26953;SDS011;14508;50.924;11.600;2023-06-14T07:28:33;6.75;;;4.43;;
26953;SDS011;14508;50.924;11.600;2023-06-14T07:31:03;10.20;;;4.88;;
26953;SDS011;14508;50.924;11.600;2023-06-14T07:33:31;6.05;;;4.20;;
26953;SDS011;14508;50.924;11.600;2023-06-14T07:35:59;5.32;;;3.75;;
26953;SDS011;14508;50.924;11.600;2023-06-14T07:38:27;9.07;;;3.90;;
26953;SDS011;14508;50.924;11.600;2023-06-14T07:40:57;8.93;;;4.75;;
26953;SDS011;14508;50.924;11.600;2023-06-14T07:43:25;10.35;;;4.50;;
26953;SDS011;14508;50.924;11.600;2023-06-14T07:45:52;9.43;;;4.32;;
26953;SDS011;14508;50.924;11.600;2023-06-14T07:48:33;6.65;;;4.47;;
26953;SDS011;14508;50.924;11.600;2023-06-14T07:51:01;11.32;;;4.88;;
26953;SDS011;14508;50.924;11.600;2023-06-14T07:53:30;11.70;;;5.05;;
26953;SDS011;14508;50.924;11.600;2023-06-14T07:55:59;13.40;;;4.65;;
26953;SDS011;14508;50.924;11.600;2023-06-14T07:58:27;6.43;;;4.43;;
26953;SDS011;14508;50.924;11.600;2023-06-14T08:00:55;7.13;;;4.45;;
26953;SDS011;14508;50.924;11.600;2023-06-14T08:03:23;12.02;;;4.93;;
26953;SDS011;14508;50.924;11.600;2023-06-14T08:05:51;7.13;;;4.75;;
26953;SDS011;14508;50.924;11.600;2023-06-14T08:08:19;6.72;;;4.50;;
26953;SDS011;14508;50.924;11.600;2023-06-14T08:10:47;7.90;;;4.50;;
26953;SDS011;14508;50.924;11.600;2023-06-14T08:13:17;7.53;;;3.85;;
26953;SDS011;14508;50.924;11.600;2023-06-14T08:15:45;8.88;;;4.60;;
26953;SDS011;14508;50.924;11.600;2023-06-14T08:18:13;10.57;;;4.95;;
26953;SDS011;14508;50.924;11.600;2023-06-14T08:20:41;7.95;;;4.43;;
26953;SDS011;14508;50.924;11.600;2023-06-14T08:23:10;10.23;;;4.40;;
26953;SDS011;14508;50.924;11.600;2023-06-14T08:25:38;7.93;;;4.00;;
26953;SDS011;14508;50.924;11.600;2023-06-14T08:28:06;5.68;;;3.97;;
26953;SDS011;14508;50.924;11.600;2023-06-14T08:30:35;8.48;;;4.53;;
26953;SDS011;14508;50.924;11.600;2023-06-14T08:33:03;5.93;;;4.40;;
26953;SDS011;14508;50.924;11.600;2023-06-14T08:35:42;8.57;;;4.57;;
26953;SDS011;14508;50.924;11.600;2023-06-14T08:38:10;5.72;;;4.68;;
26953;SDS011;14508;50.924;11.600;2023-06-14T08:40:39;10.85;;;5.15;;
26953;SDS011;14508;50.924;11.600;2023-06-14T08:43:08;10.30;;;4.88;;
26953;SDS011;14508;50.924;11.600;2023-06-14T08:45:38;8.25;;;4.03;;
26953;SDS011;14508;50.924;11.600;2023-06-14T08:48:06;6.97;;;3.83;;
26953;SDS011;14508;50.924;11.600;2023-06-14T08:50:36;8.10;;;3.58;;
26953;SDS011;14508;50.924;11.600;2023-06-14T08:53:08;5.18;;;3.63;;
26953;SDS011;14508;50.924;11.600;2023-06-14T08:55:46;7.20;;;3.58;;
26953;SDS011;14508;50.924;11.600;2023-06-14T08:58:15;4.55;;;3.63;;
26953;SDS011;14508;50.924;11.600;2023-06-14T09:00:45;8.68;;;4.07;;
26953;SDS011;14508;50.924;11.600;2023-06-14T09:03:13;12.00;;;3.42;;
26953;SDS011;14508;50.924;11.600;2023-06-14T09:05:42;8.07;;;3.60;;
26953;SDS011;14508;50.924;11.600;2023-06-14T09:08:12;8.70;;;3.80;;
26953;SDS011;14508;50.924;11.600;2023-06-14T09:10:40;6.50;;;3.30;;
26953;SDS011;14508;50.924;11.600;2023-06-14T09:13:08;5.90;;;3.45;;
26953;SDS011;14508;50.924;11.600;2023-06-14T09:15:36;8.07;;;3.53;;
26953;SDS011;14508;50.924;11.600;2023-06-14T09:18:05;6.57;;;3.33;;
26953;SDS011;14508;50.924;11.600;2023-06-14T09:20:33;8.20;;;3.80;;
26953;SDS011;14508;50.924;11.600;2023-06-14T09:23:02;7.53;;;3.70;;
26953;SDS011;14508;50.924;11.600;2023-06-14T09:25:32;4.32;;;3.20;;
26953;SDS011;14508;50.924;11.600;2023-06-14T09:28:08;4.25;;;2.97;;
26953;SDS011;14508;50.924;11.600;2023-06-14T09:30:37;6.90;;;3.00;;
26953;SDS011;14508;50.924;11.600;2023-06-14T09:33:06;8.02;;;3.40;;
26953;SDS011;14508;50.924;11.600;2023-06-14T09:35:34;7.35;;;3.90;;
26953;SDS011;14508;50.924;11.600;2023-06-14T09:38:03;4.88;;;3.13;;
26953;SDS011;14508;50.924;11.600;2023-06-14T09:40:33;15.63;;;3.67;;
26953;SDS011;14508;50.924;11.600;2023-06-14T09:43:04;8.38;;;3.60;;
26953;SDS011;14508;50.924;11.600;2023-06-14T09:45:34;6.38;;;3.33;;
26953;SDS011;14508;50.924;11.600;2023-06-14T09:48:03;6.88;;;3.10;;
26953;SDS011;14508;50.924;11.600;2023-06-14T09:50:35;5.13;;;3.53;;
26953;SDS011;14508;50.924;11.600;2023-06-14T09:53:04;6.85;;;3.40;;
26953;SDS011;14508;50.924;11.600;2023-06-14T09:55:34;6.43;;;3.25;;
26953;SDS011;14508;50.924;11.600;2023-06-14T09:58:04;4.75;;;2.85;;
26953;SDS011;14508;50.924;11.600;2023-06-14T10:00:34;4.35;;;2.95;;
26953;SDS011;14508;50.924;11.600;2023-06-14T10:03:05;6.18;;;3.15;;
26953;SDS011;14508;50.924;11.600;2023-06-14T10:05:41;8.75;;;3.25;;
26953;SDS011;14508;50.924;11.600;2023-06-14T10:08:13;9.55;;;3.13;;
26953;SDS011;14508;50.924;11.600;2023-06-14T10:10:43;6.10;;;3.17;;
26953;SDS011;14508;50.924;11.600;2023-06-14T10:13:11;3.90;;;2.90;;
26953;SDS011;14508;50.924;11.600;2023-06-14T10:15:41;4.70;;;3.28;;
26953;SDS011;14508;50.924;11.600;2023-06-14T10:18:20;5.13;;;3.33;;
26953;SDS011;14508;50.924;11.600;2023-06-14T10:20:55;4.40;;;3.25;;
26953;SDS011;14508;50.924;11.600;2023-06-14T10:23:34;12.57;;;3.95;;
26953;SDS011;14508;50.924;11.600;2023-06-14T10:26:05;7.25;;;2.92;;
26953;SDS011;14508;50.924;11.600;2023-06-14T10:28:33;10.13;;;3.42;;
26953;SDS011;14508;50.924;11.600;2023-06-14T10:31:05;8.75;;;3.80;;
26953;SDS011;14508;50.924;11.600;2023-06-14T10:33:35;5.00;;;3.20;;
26953;SDS011;14508;50.924;11.600;2023-06-14T10:36:10;4.63;;;3.05;;
26953;SDS011;14508;50.924;11.600;2023-06-14T10:39:00;5.47;;;2.78;;
26953;SDS011;14508;50.924;11.600;2023-06-14T10:41:32;4.97;;;2.72;;
26953;SDS011;14508;50.924;11.600;2023-06-14T10:47:20;9.82;;;3.47;;
26953;SDS011;14508;50.924;11.600;2023-06-14T10:49:51;5.82;;;3.03;;
26953;SDS011;14508;50.924;11.600;2023-06-14T10:52:23;5.32;;;2.85;;
26953;SDS011;14508;50.924;11.600;2023-06-14T10:55:09;5.82;;;2.90;;
26953;SDS011;14508;50.924;11.600;2023-06-14T10:57:42;5.38;;;3.20;;
26953;SDS011;14508;50.924;11.600;2023-06-14T11:00:18;6.55;;;2.78;;
26953;SDS011;14508;50.924;11.600;2023-06-14T11:03:17;4.63;;;3.20;;
26953;SDS011;14508;50.924;11.600;2023-06-14T11:06:12;5.78;;;3.13;;
26953;SDS011;14508;50.924;11.600;2023-06-14T11:08:55;6.72;;;2.95;;
26953;SDS011;14508;50.924;11.600;2023-06-14T11:11:49;6.78;;;2.80;;
26953;SDS011;14508;50.924;11.600;2023-06-14T11:14:18;5.25;;;2.58;;
26953;SDS011;14508;50.924;11.600;2023-06-14T11:16:50;5.43;;;2.88;;
26953;SDS011;14508;50.924;11.600;2023-06-14T11:19:18;4.43;;;2.83;;
26953;SDS011;14508;50.924;11.600;2023-06-14T11:21:47;4.45;;;3.08;;
26953;SDS011;14508;50.924;11.600;2023-06-14T11:24:17;9.15;;;2.90;;
26953;SDS011;14508;50.924;11.600;2023-06-14T11:26:46;6.38;;;3.10;;
26953;SDS011;14508;50.924;11.600;2023-06-14T11:29:14;9.23;;;3.42;;
26953;SDS011;14508;50.924;11.600;2023-06-14T11:31:43;4.47;;;2.70;;
26953;SDS011;14508;50.924;11.600;2023-06-14T11:34:12;6.10;;;3.30;;
26953;SDS011;14508;50.924;11.600;2023-06-14T11:36:41;5.05;;;3.28;;
26953;SDS011;14508;50.924;11.600;2023-06-14T11:39:09;4.68;;;3.03;;
26953;SDS011;14508;50.924;11.600;2023-06-14T11:41:39;5.80;;;3.28;;
26953;SDS011;14508;50.924;11.600;2023-06-14T11:44:08;7.35;;;2.97;;
26953;SDS011;14508;50.924;11.600;2023-06-14T11:46:36;7.78;;;3.53;;
26953;SDS011;14508;50.924;11.600;2023-06-14T11:49:06;8.48;;;3.58;;
26953;SDS011;14508;50.924;11.600;2023-06-14T11:51:36;6.10;;;3.47;;
26953;SDS011;14508;50.924;11.600;2023-06-14T11:54:05;7.97;;;3.00;;
26953;SDS011;14508;50.924;11.600;2023-06-14T11:56:34;7.65;;;2.83;;
26953;SDS011;14508;50.924;11.600;2023-06-14T11:59:04;6.60;;;2.92;;
26953;SDS011;14508;50.924;11.600;2023-06-14T12:01:35;6.53;;;3.63;;
26953;SDS011;14508;50.924;11.600;2023-06-14T12:04:05;5.28;;;3.85;;
26953;SDS011;14508;50.924;11.600;2023-06-14T12:06:34;9.57;;;3.45;;
26953;SDS011;14508;50.924;11.600;2023-06-14T12:09:06;5.68;;;3.70;;
26953;SDS011;14508;50.924;11.600;2023-06-14T12:11:39;4.50;;;3.45;;
26953;SDS011;14508;50.924;11.600;2023-06-14T12:14:11;11.98;;;3.85;;
26953;SDS011;14508;50.924;11.600;2023-06-14T12:16:39;11.27;;;3.42;;
26953;SDS011;14508;50.924;11.600;2023-06-14T12:19:08;5.28;;;2.90;;
26953;SDS011;14508;50.924;11.600;2023-06-14T12:21:39;4.20;;;3.35;;
26953;SDS011;14508;50.924;11.600;2023-06-14T12:24:07;4.18;;;3.17;;
26953;SDS011;14508;50.924;11.600;2023-06-14T12:26:41;5.50;;;3.22;;
26953;SDS011;14508;50.924;11.600;2023-06-14T12:29:10;5.07;;;3.28;;
26953;SDS011;14508;50.924;11.600;2023-06-14T12:31:42;3.45;;;3.13;;
26953;SDS011;14508;50.924;11.600;2023-06-14T12:34:09;5.80;;;3.25;;
26953;SDS011;14508;50.924;11.600;2023-06-14T12:36:37;6.07;;;2.72;;
26953;SDS011;14508;50.924;11.600;2023-06-14T12:39:11;7.40;;;3.40;;
26953;SDS011;14508;50.924;11.600;2023-06-14T12:41:45;4.15;;;3.03;;
26953;SDS011;14508;50.924;11.600;2023-06-14T12:44:15;7.05;;;3.80;;
26953;SDS011;14508;50.924;11.600;2023-06-14T12:46:43;5.20;;;3.20;;
26953;SDS011;14508;50.924;11.600;2023-06-14T12:49:11;3.30;;;2.70;;
26953;SDS011;14508;50.924;11.600;2023-06-14T12:51:39;6.57;;;3.03;;
26953;SDS011;14508;50.924;11.600;2023-06-14T12:54:07;7.18;;;3.22;;
26953;SDS011;14508;50.924;11.600;2023-06-14T12:56:35;7.75;;;3.28;;
26953;SDS011;14508;50.924;11.600;2023-06-14T12:59:03;4.03;;;3.17;;
26953;SDS011;14508;50.924;11.600;2023-06-14T13:01:34;12.20;;;3.50;;
26953;SDS011;14508;50.924;11.600;2023-06-14T13:04:01;8.20;;;3.50;;
26953;SDS011;14508;50.924;11.600;2023-06-14T13:06:29;5.57;;;2.97;;
26953;SDS011;14508;50.924;11.600;2023-06-14T13:08:58;5.68;;;3.08;;
26953;SDS011;14508;50.924;11.600;2023-06-14T13:11:27;4.85;;;3.17;;
26953;SDS011;14508;50.924;11.600;2023-06-14T13:13:55;3.65;;;2.83;;
26953;SDS011;14508;50.924;11.600;2023-06-14T13:16:23;4.68;;;2.60;;
26953;SDS011;14508;50.924;11.600;2023-06-14T13:18:53;5.03;;;2.95;;
26953;SDS011;14508;50.924;11.600;2023-06-14T13:21:21;5.38;;;2.92;;
26953;SDS011;14508;50.924;11.600;2023-06-14T13:23:49;5.55;;;3.33;;
26953;SDS011;14508;50.924;11.600;2023-06-14T13:26:17;5.30;;;2.97;;
26953;SDS011;14508;50.924;11.600;2023-06-14T13:28:45;3.58;;;2.78;;
26953;SDS011;14508;50.924;11.600;2023-06-14T13:31:13;6.85;;;2.58;;
26953;SDS011;14508;50.924;11.600;2023-06-14T13:33:41;4.00;;;3.03;;
26953;SDS011;14508;50.924;11.600;2023-06-14T13:36:10;8.20;;;2.78;;
26953;SDS011;14508;50.924;11.600;2023-06-14T13:38:38;5.28;;;2.75;;
26953;SDS011;14508;50.924;11.600;2023-06-14T13:41:06;5.03;;;2.33;;
26953;SDS011;14508;50.924;11.600;2023-06-14T13:43:34;3.35;;;2.00;;
26953;SDS011;14508;50.924;11.600;2023-06-14T13:46:05;2.20;;;2.00;;
26953;SDS011;14508;50.924;11.600;2023-06-14T13:48:33;3.75;;;2.25;;
26953;SDS011;14508;50.924;11.600;2023-06-14T13:51:00;8.70;;;2.70;;
26953;SDS011;14508;50.924;11.600;2023-06-14T13:53:31;3.00;;;1.92;;
26953;SDS011;14508;50.924;11.600;2023-06-14T13:55:59;3.92;;;2.28;;
26953;SDS011;14508;50.924;11.600;2023-06-14T13:58:27;2.28;;;2.00;;
26953;SDS011;14508;50.924;11.600;2023-06-14T14:00:55;4.35;;;2.40;;
26953;SDS011;14508;50.924;11.600;2023-06-14T14:03:25;6.68;;;2.60;;
26953;SDS011;14508;50.924;11.600;2023-06-14T14:05:53;5.43;;;2.10;;
26953;SDS011;14508;50.924;11.600;2023-06-14T14:08:21;4.22;;;2.25;;
26953;SDS011;14508;50.924;11.600;2023-06-14T14:10:51;2.80;;;1.95;;
26953;SDS011;14508;50.924;11.600;2023-06-14T14:13:18;5.70;;;2.17;;
26953;SDS011;14508;50.924;11.600;2023-06-14T14:15:47;1.92;;;1.67;;
26953;SDS011;14508;50.924;11.600;2023-06-14T14:18:17;5.70;;;1.90;;
26953;SDS011;14508;50.924;11.600;2023-06-14T14:20:47;5.65;;;2.33;;
26953;SDS011;14508;50.924;11.600;2023-06-14T14:23:15;3.03;;;2.10;;
26953;SDS011;14508;50.924;11.600;2023-06-14T14:25:43;4.43;;;2.10;;
26953;SDS011;14508;50.924;11.600;2023-06-14T14:28:12;2.72;;;2.40;;
26953;SDS011;14508;50.924;11.600;2023-06-14T14:30:44;5.28;;;2.25;;
26953;SDS011;14508;50.924;11.600;2023-06-14T14:33:13;4.40;;;2.08;;
26953;SDS011;14508;50.924;11.600;2023-06-14T14:35:43;3.20;;;2.20;;
26953;SDS011;14508;50.924;11.600;2023-06-14T14:38:12;2.13;;;1.80;;
26953;SDS011;14508;50.924;11.600;2023-06-14T14:40:40;3.75;;;2.30;;
26953;SDS011;14508;50.924;11.600;2023-06-14T14:43:08;2.45;;;1.88;;
26953;SDS011;14508;50.924;11.600;2023-06-14T14:45:38;8.77;;;2.75;;
26953;SDS011;14508;50.924;11.600;2023-06-14T14:48:06;6.60;;;2.55;;
26953;SDS011;14508;50.924;11.600;2023-06-14T14:50:34;5.50;;;2.15;;
26953;SDS011;14508;50.924;11.600;2023-06-14T14:53:02;4.50;;;1.85;;
26953;SDS011;14508;50.924;11.600;2023-06-14T14:55:29;2.63;;;1.85;;
26953;SDS011;14508;50.924;11.600;2023-06-14T14:57:58;3.78;;;2.10;;
26953;SDS011;14508;50.924;11.600;2023-06-14T15:00:26;7.03;;;2.85;;
26953;SDS011;14508;50.924;11.600;2023-06-14T15:02:55;10.43;;;2.53;;